createdAt,value
2019-03-11T00:01:18.950Z,6.40
2019-03-11T00:04:20.560Z,6.40
2019-03-11T00:07:17.457Z,6.50
2019-03-11T00:10:10.198Z,6.30
2019-03-11T00:13:02.752Z,6.30
2019-03-11T00:16:05.628Z,6.20
2019-03-11T00:18:54.397Z,6.10
2019-03-11T00:22:07.620Z,6.20
2019-03-11T00:24:59.464Z,6.00
2019-03-11T00:27:53.033Z,5.90
2019-03-11T00:30:53.774Z,5.80
2019-03-11T00:33:48.314Z,5.80
2019-03-11T00:36:45.475Z,5.70
2019-03-11T00:39:46.256Z,5.60
2019-03-11T00:42:42.977Z,5.60
2019-03-11T00:45:35.131Z,5.60
2019-03-11T00:48:32.997Z,5.40
2019-03-11T00:51:23.483Z,5.40
2019-03-11T00:54:13.075Z,5.40
2019-03-11T00:57:02.955Z,5.30
2019-03-11T01:00:20.554Z,5.40
2019-03-11T01:03:10.767Z,5.50
2019-03-11T01:06:23.730Z,5.60
2019-03-11T01:09:18.101Z,5.60
2019-03-11T01:12:08.701Z,5.60
2019-03-11T01:15:17.938Z,5.60
2019-03-11T01:18:15.158Z,5.50
2019-03-11T01:21:08.653Z,5.50
2019-03-11T01:24:03.648Z,5.40
2019-03-11T01:26:52.287Z,5.60
2019-03-11T01:29:44.692Z,5.50
2019-03-11T01:32:39.864Z,5.40
2019-03-11T01:35:31.195Z,5.30
2019-03-11T01:38:24.932Z,5.40
2019-03-11T01:41:25.772Z,5.30
2019-03-11T01:44:20.767Z,5.30
2019-03-11T01:47:23.053Z,5.20
2019-03-11T01:50:24.711Z,5.20
2019-03-11T01:53:22.567Z,5.10
2019-03-11T01:56:15.238Z,5.10
2019-03-11T01:59:06.334Z,5.00
2019-03-11T02:02:06.738Z,4.90
2019-03-11T02:04:57.065Z,4.90
2019-03-11T02:07:50.241Z,4.80
2019-03-11T02:10:47.785Z,4.80
2019-03-11T02:13:43.812Z,4.80
2019-03-11T02:16:39.633Z,4.70
2019-03-11T02:19:37.413Z,4.60
2019-03-11T02:22:30.051Z,4.50
2019-03-11T02:25:23.436Z,4.40
2019-03-11T02:28:16.494Z,4.30
2019-03-11T02:31:09.042Z,4.40
2019-03-11T02:34:02.697Z,4.40
2019-03-11T02:36:52.471Z,4.40
2019-03-11T02:39:43.381Z,4.50
2019-03-11T02:42:36.547Z,4.50
2019-03-11T02:45:25.117Z,4.60
2019-03-11T02:48:16.733Z,4.60
2019-03-11T02:51:08.868Z,4.60
2019-03-11T02:53:59.565Z,4.70
2019-03-11T02:56:58.242Z,4.60
2019-03-11T03:00:07.797Z,4.60
2019-03-11T03:03:07.413Z,4.60
2019-03-11T03:06:09.063Z,4.70
2019-03-11T03:09:04.069Z,4.70
2019-03-11T03:12:15.546Z,4.70
2019-03-11T03:15:13.541Z,4.70
2019-03-11T03:18:11.438Z,4.70
2019-03-11T03:21:11.521Z,4.80
2019-03-11T03:24:21.792Z,4.90
2019-03-11T03:27:22.002Z,4.90
2019-03-11T03:34:09.464Z,5.10
2019-03-11T03:37:00.477Z,5.10
2019-03-11T03:39:53.644Z,5.20
2019-03-11T03:42:48.190Z,5.20
2019-03-11T03:49:05.793Z,5.20
2019-03-11T03:51:58.714Z,5.20
2019-03-11T03:55:12.265Z,5.20
2019-03-11T03:58:09.532Z,5.30
2019-03-11T04:01:07.199Z,5.30
2019-03-11T04:04:20.214Z,5.40
2019-03-11T04:07:21.845Z,5.40
2019-03-11T04:10:24.447Z,5.50
2019-03-11T04:13:18.112Z,5.40
2019-03-11T04:16:14.994Z,5.40
2019-03-11T04:19:05.886Z,5.30
2019-03-11T04:21:54.946Z,5.30
2019-03-11T04:25:05.901Z,5.30
2019-03-11T04:28:06.968Z,5.30
2019-03-11T04:30:58.612Z,5.40
2019-03-11T04:33:51.425Z,5.40
2019-03-11T04:36:40.118Z,5.40
2019-03-11T04:39:32.748Z,5.40
2019-03-11T04:42:24.153Z,5.40
2019-03-11T04:45:14.149Z,5.50
2019-03-11T04:48:08.032Z,5.50
2019-03-11T04:50:57.581Z,5.50
2019-03-11T04:53:56.397Z,5.50
2019-03-11T04:56:56.428Z,5.50
2019-03-11T05:03:09.595Z,5.40
2019-03-11T05:05:59.968Z,5.40
2019-03-11T05:09:03.653Z,5.40
2019-03-11T05:11:53.945Z,5.40
2019-03-11T05:14:50.690Z,5.40
2019-03-11T05:18:00.268Z,5.40
2019-03-11T05:21:09.063Z,5.30
2019-03-11T05:24:07.440Z,5.30
2019-03-11T05:27:18.944Z,5.30
2019-03-11T05:30:07.345Z,5.20
2019-03-11T05:32:56.053Z,5.20
2019-03-11T05:35:44.645Z,5.10
2019-03-11T05:38:31.898Z,5.10
2019-03-11T05:41:19.006Z,5.00
2019-03-11T05:44:06.426Z,4.90
2019-03-11T05:46:54.041Z,4.70
2019-03-11T05:49:41.670Z,4.60
2019-03-11T05:52:29.293Z,4.50
2019-03-11T05:55:16.626Z,4.50
2019-03-11T05:58:04.968Z,4.40
2019-03-11T06:00:52.320Z,4.30
2019-03-11T06:03:55.430Z,4.20
2019-03-11T06:06:59.019Z,4.10
2019-03-11T06:09:49.532Z,4.10
2019-03-11T06:12:37.300Z,4.00
2019-03-11T06:15:24.995Z,4.00
2019-03-11T06:18:12.794Z,3.90
2019-03-11T06:21:16.147Z,3.90
2019-03-11T06:24:03.439Z,3.80
2019-03-11T06:26:51.109Z,3.80
2019-03-11T06:29:38.642Z,3.80
2019-03-11T06:32:25.948Z,3.90
2019-03-11T06:35:13.301Z,3.90
2019-03-11T06:38:00.342Z,3.90
2019-03-11T06:40:47.420Z,3.90
2019-03-11T06:43:35.103Z,3.90
2019-03-11T06:46:22.853Z,3.90
2019-03-11T06:49:10.123Z,3.90
2019-03-11T06:51:57.646Z,3.90
2019-03-11T06:54:44.957Z,3.80
2019-03-11T06:57:32.619Z,3.80
2019-03-11T07:00:20.302Z,3.80
2019-03-11T07:03:08.160Z,3.90
2019-03-11T07:05:55.321Z,3.90
2019-03-11T07:08:42.918Z,4.00
2019-03-11T07:11:30.760Z,4.00
2019-03-11T07:14:18.048Z,3.90
2019-03-11T07:17:05.648Z,3.90
2019-03-11T07:19:53.072Z,3.90
2019-03-11T07:22:40.828Z,3.90
2019-03-11T07:25:28.570Z,3.90
2019-03-11T07:28:16.401Z,3.90
2019-03-11T07:31:03.836Z,3.90
2019-03-11T07:33:51.431Z,4.10
2019-03-11T07:36:38.837Z,4.10
2019-03-11T07:39:25.958Z,4.10
2019-03-11T07:42:13.406Z,4.10
2019-03-11T07:45:00.570Z,4.20
2019-03-11T07:47:47.637Z,4.20
2019-03-11T07:50:34.960Z,4.20
2019-03-11T07:53:22.637Z,4.20
2019-03-11T07:56:09.885Z,4.30
2019-03-11T07:58:57.210Z,4.50
2019-03-11T08:01:45.220Z,4.70
2019-03-11T08:04:32.832Z,4.90
2019-03-11T08:07:20.114Z,5.10
2019-03-11T08:10:09.056Z,5.10
2019-03-11T08:12:56.649Z,5.10
2019-03-11T08:15:44.354Z,5.10
2019-03-11T08:18:35.348Z,5.10
2019-03-11T08:21:20.733Z,5.00
2019-03-11T08:24:08.428Z,4.80
2019-03-11T08:26:56.301Z,4.50
2019-03-11T08:29:44.165Z,4.40
2019-03-11T08:32:32.246Z,4.20
2019-03-11T08:35:20.073Z,4.10
2019-03-11T08:38:07.779Z,4.10
2019-03-11T08:40:55.100Z,3.50
2019-03-11T08:43:42.769Z,2.90
2019-03-11T08:46:30.194Z,2.70
2019-03-11T08:49:18.043Z,2.80
2019-03-11T08:52:05.850Z,2.90
2019-03-11T08:54:53.368Z,3.00
2019-03-11T08:57:41.499Z,3.30
2019-03-11T09:00:28.694Z,3.60
2019-03-11T09:03:15.996Z,3.60
2019-03-11T09:06:03.300Z,3.70
2019-03-11T09:08:50.886Z,4.30
2019-03-11T09:11:38.006Z,4.80
2019-03-11T09:14:25.629Z,4.70
2019-03-11T09:17:13.274Z,4.80
2019-03-11T09:20:00.965Z,5.00
2019-03-11T09:22:48.607Z,5.60
2019-03-11T09:25:35.840Z,5.60
2019-03-11T09:28:23.023Z,5.60
2019-03-11T09:31:10.354Z,5.50
2019-03-11T09:33:57.768Z,5.60
2019-03-11T09:36:45.852Z,5.60
2019-03-11T09:39:33.239Z,5.50
2019-03-11T09:42:20.932Z,5.40
2019-03-11T09:45:09.884Z,5.40
2019-03-11T09:47:57.213Z,5.50
2019-03-11T09:50:45.089Z,5.70
2019-03-11T09:53:32.702Z,5.50
2019-03-11T09:56:20.430Z,5.60
2019-03-11T09:59:08.477Z,5.90
2019-03-11T10:01:55.945Z,6.20
2019-03-11T10:04:43.562Z,6.10
2019-03-11T10:07:31.351Z,6.00
2019-03-11T10:12:40.382Z,6.10
2019-03-11T10:15:28.107Z,5.80
2019-03-11T10:18:15.896Z,6.00
2019-03-11T10:21:03.706Z,6.00
2019-03-11T10:23:51.273Z,6.20
2019-03-11T10:26:39.198Z,6.20
2019-03-11T10:29:26.663Z,6.30
2019-03-11T10:32:14.142Z,6.40
2019-03-11T10:35:01.969Z,6.60
2019-03-11T10:37:49.527Z,6.80
2019-03-11T10:40:37.187Z,6.70
2019-03-11T10:43:24.768Z,6.80
2019-03-11T10:46:12.094Z,6.90
2019-03-11T10:48:59.315Z,6.60
2019-03-11T10:51:46.637Z,6.60
2019-03-11T10:54:34.273Z,6.80
2019-03-11T10:57:21.674Z,7.00
2019-03-11T11:00:12.546Z,7.00
2019-03-11T11:03:00.622Z,6.90
2019-03-11T11:05:47.815Z,6.90
2019-03-11T11:08:35.181Z,6.80
2019-03-11T11:11:22.885Z,6.60
2019-03-11T11:14:10.074Z,6.60
2019-03-11T11:16:57.609Z,6.60
2019-03-11T11:19:45.682Z,6.50
2019-03-11T11:22:33.022Z,6.60
2019-03-11T11:25:20.778Z,6.40
2019-03-11T11:28:08.201Z,6.50
2019-03-11T11:30:55.581Z,6.50
2019-03-11T11:33:43.309Z,6.60
2019-03-11T11:36:31.074Z,6.30
2019-03-11T11:39:18.506Z,6.20
2019-03-11T11:42:06.201Z,6.10
2019-03-11T11:44:54.261Z,6.30
2019-03-11T11:47:42.097Z,6.20
2019-03-11T11:50:29.806Z,6.00
2019-03-11T11:53:17.377Z,6.00
2019-03-11T11:56:04.626Z,5.80
2019-03-11T11:58:51.745Z,5.70
2019-03-11T12:01:39.047Z,5.70
2019-03-11T12:04:26.546Z,5.90
2019-03-11T12:07:14.282Z,6.20
2019-03-11T12:10:01.873Z,6.30
2019-03-11T12:12:50.239Z,6.40
2019-03-11T12:15:38.148Z,6.70
2019-03-11T12:18:26.028Z,6.70
2019-03-11T12:21:13.576Z,6.90
2019-03-11T12:24:01.214Z,6.90
2019-03-11T12:26:49.305Z,6.80
2019-03-11T12:29:37.147Z,6.70
2019-03-11T12:32:24.718Z,6.30
2019-03-11T12:35:12.541Z,6.20
2019-03-11T12:38:00.526Z,6.40
2019-03-11T12:40:48.098Z,6.40
2019-03-11T12:43:35.531Z,5.90
2019-03-11T12:46:23.017Z,6.40
2019-03-11T12:49:10.431Z,6.90
2019-03-11T12:51:58.095Z,7.30
2019-03-11T12:54:45.429Z,7.70
2019-03-11T12:57:33.462Z,7.70
2019-03-11T13:00:21.333Z,7.50
2019-03-11T13:03:08.894Z,7.70
2019-03-11T13:05:56.922Z,7.30
2019-03-11T13:08:44.389Z,7.20
2019-03-11T13:11:31.787Z,7.20
2019-03-11T13:14:18.910Z,7.00
2019-03-11T13:17:06.341Z,7.20
2019-03-11T13:19:55.406Z,7.50
2019-03-11T13:22:42.774Z,7.30
2019-03-11T13:25:30.244Z,7.00
2019-03-11T13:28:17.996Z,6.80
2019-03-11T13:31:05.392Z,7.00
2019-03-11T13:33:52.626Z,7.10
2019-03-11T13:36:39.913Z,7.30
2019-03-11T13:39:27.344Z,6.90
2019-03-11T13:42:14.734Z,7.40
2019-03-11T13:45:02.493Z,8.70
2019-03-11T13:47:49.665Z,8.50
2019-03-11T13:50:37.948Z,8.80
2019-03-11T13:53:25.227Z,7.50
2019-03-11T13:56:13.185Z,7.30
2019-03-11T13:59:00.903Z,7.20
2019-03-11T14:01:48.359Z,7.20
2019-03-11T14:04:35.394Z,7.10
2019-03-11T14:07:37.044Z,8.00
2019-03-11T14:10:28.874Z,7.80
2019-03-11T14:13:17.929Z,7.40
2019-03-11T14:16:05.578Z,7.70
2019-03-11T14:18:53.161Z,7.60
2019-03-11T14:21:41.051Z,7.90
2019-03-11T14:24:28.816Z,8.00
2019-03-11T14:27:16.577Z,7.60
2019-03-11T14:30:04.197Z,7.30
2019-03-11T14:32:51.802Z,7.30
2019-03-11T14:35:39.472Z,7.40
2019-03-11T14:38:26.928Z,7.20
2019-03-11T14:41:14.606Z,7.30
2019-03-11T14:44:01.821Z,7.90
2019-03-11T14:46:49.561Z,8.60
2019-03-11T14:49:37.159Z,8.00
2019-03-11T14:52:24.567Z,7.30
2019-03-11T14:55:12.106Z,7.00
2019-03-11T14:58:01.134Z,6.80
2019-03-11T15:00:48.638Z,6.60
2019-03-11T15:03:36.212Z,6.50
2019-03-11T15:06:24.099Z,6.20
2019-03-11T15:09:11.835Z,6.00
2019-03-11T15:11:58.918Z,5.90
2019-03-11T15:14:46.666Z,6.00
2019-03-11T15:17:34.050Z,6.00
2019-03-11T15:20:21.217Z,7.80
2019-03-11T15:23:19.927Z,8.90
2019-03-11T15:25:58.063Z,9.50
2019-03-11T15:28:45.147Z,8.90
2019-03-11T15:31:32.658Z,8.10
2019-03-11T15:34:20.717Z,7.10
2019-03-11T15:37:08.102Z,6.40
2019-03-11T15:39:55.415Z,7.00
2019-03-11T15:42:43.147Z,7.10
2019-03-11T15:45:38.526Z,7.10
2019-03-11T15:48:24.153Z,7.80
2019-03-11T15:51:11.849Z,7.30
2019-03-11T15:53:59.427Z,7.90
2019-03-11T15:56:46.802Z,7.90
2019-03-11T15:59:34.548Z,7.10
2019-03-11T16:02:22.002Z,6.60
2019-03-11T16:05:09.454Z,6.30
2019-03-11T16:07:57.918Z,6.30
2019-03-11T16:10:45.550Z,6.30
2019-03-11T16:13:33.145Z,6.20
2019-03-11T16:16:20.855Z,6.30
2019-03-11T16:19:08.310Z,6.20
2019-03-11T16:21:55.512Z,6.20
2019-03-11T16:24:42.925Z,5.50
2019-03-11T16:27:30.341Z,4.20
2019-03-11T16:30:19.090Z,3.70
2019-03-11T16:33:06.405Z,3.70
2019-03-11T16:35:53.897Z,4.60
2019-03-11T16:38:41.827Z,4.80
2019-03-11T16:41:29.280Z,4.70
2019-03-11T16:44:16.448Z,4.60
2019-03-11T16:47:03.609Z,4.40
2019-03-11T16:49:51.086Z,4.40
2019-03-11T16:52:38.470Z,4.20
2019-03-11T16:55:29.030Z,3.80
2019-03-11T16:58:16.345Z,4.00
2019-03-11T17:01:06.874Z,4.20
2019-03-11T17:03:54.782Z,4.30
2019-03-11T17:06:42.182Z,4.20
2019-03-11T17:09:29.520Z,4.10
2019-03-11T17:12:16.859Z,3.90
2019-03-11T17:15:04.654Z,3.50
2019-03-11T17:17:51.910Z,3.40
2019-03-11T17:20:39.348Z,3.30
2019-03-11T17:23:27.080Z,3.00
2019-03-11T17:26:14.888Z,2.80
2019-03-11T17:29:02.393Z,2.70
2019-03-11T17:31:49.586Z,2.70
2019-03-11T17:34:37.238Z,2.90
2019-03-11T17:37:24.960Z,3.10
2019-03-11T17:40:13.847Z,3.30
2019-03-11T17:43:01.469Z,3.50
2019-03-11T17:45:49.372Z,3.60
2019-03-11T17:48:36.674Z,3.70
2019-03-11T17:51:24.313Z,3.70
2019-03-11T17:54:11.992Z,3.80
2019-03-11T17:56:59.238Z,3.90
2019-03-11T17:59:46.593Z,3.90
2019-03-11T18:02:34.457Z,3.90
2019-03-11T18:05:22.387Z,4.00
2019-03-11T18:08:09.952Z,4.10
2019-03-11T18:10:57.581Z,4.10
2019-03-11T18:13:45.177Z,4.20
2019-03-11T18:16:32.826Z,4.20
2019-03-11T18:19:20.696Z,4.10
2019-03-11T18:22:52.325Z,4.20
2019-03-11T18:25:42.104Z,4.00
2019-03-11T18:28:29.852Z,3.90
2019-03-11T18:31:17.823Z,3.80
2019-03-11T18:34:05.297Z,3.80
2019-03-11T18:36:52.702Z,3.70
2019-03-11T18:39:39.999Z,3.70
2019-03-11T18:42:28.518Z,3.60
2019-03-11T18:45:16.652Z,3.60
2019-03-11T18:48:04.565Z,3.60
2019-03-11T18:50:52.169Z,3.60
2019-03-11T18:53:39.461Z,3.60
2019-03-11T18:56:26.542Z,3.60
2019-03-11T18:59:14.331Z,3.60
2019-03-11T19:02:01.892Z,3.50
2019-03-11T19:04:49.693Z,3.60
2019-03-11T19:07:37.365Z,3.60
2019-03-11T19:10:25.026Z,3.60
2019-03-11T19:13:12.291Z,3.60
2019-03-11T19:16:00.027Z,3.60
2019-03-11T19:18:48.471Z,3.60
2019-03-11T19:21:36.151Z,3.60
2019-03-11T19:24:23.924Z,3.60
2019-03-11T19:27:12.935Z,3.60
2019-03-11T19:30:00.603Z,3.60
2019-03-11T19:32:53.745Z,3.60
2019-03-11T19:35:57.938Z,3.60
2019-03-11T19:38:50.085Z,3.60
2019-03-11T19:41:37.694Z,3.60
2019-03-11T19:44:36.949Z,3.50
2019-03-11T19:47:18.405Z,3.40
2019-03-11T19:50:11.038Z,3.40
2019-03-11T19:52:59.597Z,3.40
2019-03-11T19:55:47.759Z,3.30
2019-03-11T19:58:35.274Z,3.20
2019-03-11T20:01:23.154Z,3.30
2019-03-11T20:04:10.582Z,3.30
2019-03-11T20:06:58.075Z,3.30
2019-03-11T20:09:46.101Z,3.30
2019-03-11T20:12:33.684Z,3.30
2019-03-11T20:15:21.113Z,3.40
2019-03-11T20:18:09.386Z,3.40
2019-03-11T20:20:56.850Z,3.50
2019-03-11T20:23:44.203Z,3.40
2019-03-11T20:26:31.602Z,3.40
2019-03-11T20:29:19.115Z,3.40
2019-03-11T20:32:06.862Z,3.40
2019-03-11T20:34:55.116Z,3.40
2019-03-11T20:37:42.625Z,3.50
2019-03-11T20:40:30.071Z,3.50
2019-03-11T20:43:24.103Z,3.40
2019-03-11T20:49:17.450Z,3.50
2019-03-11T20:52:09.453Z,3.40
2019-03-11T20:54:57.282Z,3.50
2019-03-11T20:57:45.806Z,3.50
2019-03-11T21:00:33.603Z,3.50
2019-03-11T21:03:21.673Z,3.50
2019-03-11T21:06:09.732Z,3.50
2019-03-11T21:09:07.480Z,3.60
2019-03-11T21:11:56.553Z,3.50
2019-03-11T21:14:44.047Z,3.50
2019-03-11T21:17:31.598Z,3.40
2019-03-11T21:20:18.973Z,3.40
2019-03-11T21:23:06.744Z,3.40
2019-03-11T21:25:56.676Z,3.40
2019-03-11T21:28:43.775Z,3.40
2019-03-11T21:31:30.951Z,3.40
2019-03-11T21:34:18.360Z,3.40
2019-03-11T21:37:06.176Z,3.50
2019-03-11T21:39:54.212Z,3.50
2019-03-11T21:42:41.788Z,3.50
2019-03-11T21:45:33.989Z,3.50
2019-03-11T21:48:18.484Z,3.60
2019-03-11T21:51:05.796Z,3.60
2019-03-11T21:53:53.556Z,3.60
2019-03-11T21:56:41.158Z,3.60
2019-03-11T21:59:28.878Z,3.60
2019-03-11T22:02:16.365Z,3.60
2019-03-11T22:05:04.905Z,3.60
2019-03-11T22:07:52.602Z,3.60
2019-03-11T22:10:40.116Z,3.60
2019-03-11T22:13:27.852Z,3.60
2019-03-11T22:16:15.546Z,3.70
2019-03-11T22:19:02.781Z,3.60
2019-03-11T22:21:50.257Z,3.60
2019-03-11T22:24:37.611Z,3.60
2019-03-11T22:27:25.219Z,3.60
2019-03-11T22:30:15.384Z,3.60
2019-03-11T22:33:03.164Z,3.60
2019-03-11T22:35:50.525Z,3.60
2019-03-11T22:38:38.025Z,3.60
2019-03-11T22:41:25.850Z,3.60
2019-03-11T22:44:15.722Z,3.60
2019-03-11T22:47:11.033Z,3.70
2019-03-11T22:49:58.814Z,3.70
2019-03-11T22:52:46.211Z,3.60
2019-03-11T22:55:33.696Z,3.70
2019-03-11T22:58:21.301Z,3.60
2019-03-11T23:01:09.719Z,3.70
2019-03-11T23:03:57.425Z,3.80
2019-03-11T23:06:45.195Z,3.80
2019-03-11T23:09:32.825Z,3.80
2019-03-11T23:12:20.546Z,3.80
2019-03-11T23:15:08.164Z,3.90
2019-03-11T23:17:56.110Z,3.90
2019-03-11T23:20:43.361Z,3.90
2019-03-11T23:23:30.696Z,3.90
2019-03-11T23:26:18.233Z,3.90
2019-03-11T23:29:05.981Z,3.90
2019-03-11T23:31:53.711Z,4.00
2019-03-11T23:34:41.296Z,3.90
2019-03-11T23:37:28.937Z,3.90
2019-03-11T23:40:16.404Z,3.90
2019-03-11T23:43:03.850Z,3.90
2019-03-11T23:45:51.177Z,3.80
2019-03-11T23:48:38.457Z,3.90
2019-03-11T23:51:26.138Z,3.90
2019-03-11T23:54:13.878Z,3.90
2019-03-11T23:57:01.730Z,3.90
2019-03-11T23:59:49.239Z,3.90
